Time;durP1;ratioP1;P1;durP2;ratioP2;P2;SDS_P1;SDS_P2;PMS_P1;PMS_P2;Temp;Humidity;BMP_temperature;BMP_pressure;BME280_temperature;BME280_humidity;BME280_pressure;Samples;Min_cycle;Max_cycle;Signal;HPM_P1;HPM_P2
2021/04/01 00:01:11;;;;;;;12.27;6.47;;;;;;;9.84;53.22;96570.44;5062073;28;20058;-79
2021/04/01 00:03:38;;;;;;;12.23;6.63;;;;;;;9.92;53.00;96573.16;5061697;28;20036;-78
2021/04/01 00:06:04;;;;;;;14.43;7.23;;;;;;;9.95;52.37;96566.78;5062455;28;20027;-77
2021/04/01 00:08:30;;;;;;;13.30;6.50;;;;;;;10.03;52.01;96564.25;5050235;28;20032;-77
2021/04/01 00:10:56;;;;;;;12.60;6.83;;;;;;;9.94;52.35;96570.38;5059907;28;20640;-79
2021/04/01 00:13:23;;;;;;;13.67;6.57;;;;;;;9.93;52.76;96568.75;5065920;28;20044;-78
2021/04/01 00:15:48;;;;;;;13.67;6.67;;;;;;;9.92;52.20;96565.25;5049374;28;20039;-79
2021/04/01 00:18:20;;;;;;;10.70;5.67;;;;;;;9.92;52.27;96565.25;5059039;28;20032;-79
2021/04/01 00:20:46;;;;;;;11.93;6.00;;;;;;;9.91;52.16;96561.00;5039713;28;20028;-78
2021/04/01 00:23:12;;;;;;;12.73;6.03;;;;;;;10.00;51.93;96556.66;5075579;28;20020;-78
2021/04/01 00:25:38;;;;;;;15.90;6.80;;;;;;;9.98;51.96;96562.06;5051196;28;20021;-79
2021/04/01 00:28:04;;;;;;;11.93;6.27;;;;;;;9.89;51.85;96558.53;5058876;28;20187;-78
2021/04/01 00:30:30;;;;;;;14.20;7.47;;;;;;;9.90;52.01;96556.72;5058441;28;20036;-77
2021/04/01 00:32:56;;;;;;;15.13;7.57;;;;;;;9.83;52.28;96558.28;5050769;28;20059;-78
2021/04/01 00:35:21;;;;;;;15.47;6.27;;;;;;;9.84;52.17;96558.13;5062893;28;20036;-78
2021/04/01 00:37:47;;;;;;;13.70;6.40;;;;;;;9.81;52.23;96555.78;5059739;28;20120;-78
2021/04/01 00:40:13;;;;;;;13.10;6.37;;;;;;;9.77;52.67;96558.88;5061075;28;20103;-77
2021/04/01 00:42:40;;;;;;;14.07;7.13;;;;;;;9.73;52.92;96554.88;5043417;28;20033;-79
2021/04/01 00:45:09;;;;;;;12.57;6.30;;;;;;;9.73;52.85;96553.09;5067122;28;20032;-78
2021/04/01 00:47:41;;;;;;;14.90;6.90;;;;;;;9.76;52.87;96554.56;5055919;28;20037;-77
2021/04/01 00:50:10;;;;;;;14.33;6.80;;;;;;;9.78;52.92;96550.00;5045679;28;20128;-79
2021/04/01 00:52:37;;;;;;;15.10;6.80;;;;;;;9.64;53.23;96549.53;5051921;28;20036;-77
2021/04/01 00:55:04;;;;;;;15.33;6.17;;;;;;;9.46;54.37;96540.78;5057264;28;20037;-77
2021/04/01 00:57:31;;;;;;;11.63;5.90;;;;;;;9.48;54.12;96549.31;5073691;28;20103;-78
2021/04/01 00:59:57;;;;;;;15.33;7.63;;;;;;;9.50;54.24;96547.38;5068154;28;20056;-77
2021/04/01 01:02:23;;;;;;;12.83;7.27;;;;;;;9.45;54.39;96536.47;5053326;28;20101;-79
2021/04/01 01:04:49;;;;;;;11.97;6.17;;;;;;;9.42;54.86;96544.63;5071100;28;20025;-78
2021/04/01 01:07:14;;;;;;;15.30;6.37;;;;;;;9.40;54.68;96541.34;5039307;28;20021;-78
2021/04/01 01:09:40;;;;;;;17.17;7.13;;;;;;;9.35;54.73;96538.31;5041702;28;20035;-78
2021/04/01 01:12:07;;;;;;;12.30;6.10;;;;;;;9.33;55.32;96540.28;5043130;28;20029;-78
2021/04/01 01:14:34;;;;;;;11.07;6.30;;;;;;;9.39;54.64;96534.44;5056304;28;20497;-79
2021/04/01 01:17:00;;;;;;;12.90;6.80;;;;;;;9.38;54.40;96533.59;5059069;28;20035;-79
2021/04/01 01:19:26;;;;;;;14.87;6.73;;;;;;;9.25;54.77;96537.53;5056851;28;20032;-78
2021/04/01 01:21:53;;;;;;;11.93;7.60;;;;;;;9.25;55.08;96532.28;5065248;28;20020;-77
2021/04/01 01:24:19;;;;;;;12.30;7.37;;;;;;;9.26;55.05;96537.41;5053611;28;20349;-79
2021/04/01 01:26:46;;;;;;;11.43;5.47;;;;;;;9.25;55.32;96535.72;5064581;28;20016;-79
2021/04/01 01:29:13;;;;;;;13.53;6.73;;;;;;;9.23;55.43;96531.59;5049407;28;20036;-79
2021/04/01 01:31:47;;;;;;;12.53;6.63;;;;;;;9.15;55.55;96521.81;5063267;28;20027;-78
2021/04/01 01:34:13;;;;;;;10.53;6.17;;;;;;;9.08;55.89;96521.56;5074733;28;20036;-78
2021/04/01 01:36:38;;;;;;;12.60;6.20;;;;;;;9.06;55.76;96520.88;5060618;28;20119;-78
2021/04/01 01:39:04;;;;;;;9.67;5.17;;;;;;;9.09;55.95;96520.59;5054202;28;20099;-78
2021/04/01 01:41:30;;;;;;;14.53;6.47;;;;;;;9.13;55.29;96521.13;5060614;28;20029;-78
2021/04/01 01:43:57;;;;;;;13.20;6.50;;;;;;;9.15;55.22;96527.06;5059399;28;20033;-77
2021/04/01 01:46:23;;;;;;;13.17;6.80;;;;;;;9.18;54.92;96516.28;5040251;28;20021;-79
2021/04/01 01:48:49;;;;;;;10.63;5.87;;;;;;;9.03;55.65;96513.28;5056094;28;20039;-79
2021/04/01 01:51:15;;;;;;;13.30;5.80;;;;;;;9.09;55.43;96512.72;5063943;28;20020;-78
2021/04/01 01:53:44;;;;;;;11.33;6.30;;;;;;;9.07;55.24;96521.72;5048213;28;20097;-78
2021/04/01 01:56:09;;;;;;;11.97;6.63;;;;;;;9.05;56.25;96513.13;5058275;28;20033;-77
2021/04/01 01:58:35;;;;;;;14.60;6.40;;;;;;;9.03;56.47;96515.91;5070187;28;20508;-78
2021/04/01 02:01:02;;;;;;;14.30;6.17;;;;;;;8.97;56.45;96513.88;5062503;28;20130;-78
2021/04/01 02:03:28;;;;;;;13.93;6.37;;;;;;;8.96;55.94;96514.84;5077393;28;20562;-77
2021/04/01 02:05:54;;;;;;;14.37;6.70;;;;;;;8.88;56.31;96512.09;5067854;28;20048;-78
2021/04/01 02:08:20;;;;;;;13.40;6.73;;;;;;;8.76;57.66;96515.84;5049494;28;20039;-78
2021/04/01 02:10:48;;;;;;;11.37;5.77;;;;;;;8.79;57.05;96507.72;5081221;28;20024;-78
2021/04/01 02:13:16;;;;;;;11.63;6.50;;;;;;;8.74;56.79;96506.31;5064244;28;20048;-78
2021/04/01 02:15:44;;;;;;;16.43;7.53;;;;;;;8.72;57.01;96499.56;5063894;28;20025;-77
2021/04/01 02:18:10;;;;;;;13.87;6.17;;;;;;;8.75;56.41;96504.50;5058927;28;20025;-79
2021/04/01 02:20:45;;;;;;;14.63;6.67;;;;;;;8.70;56.42;96496.25;5061836;28;20036;-77
2021/04/01 02:23:16;;;;;;;12.13;6.20;;;;;;;8.65;56.65;96496.69;5070470;28;20112;-78
2021/04/01 02:25:44;;;;;;;11.23;6.03;;;;;;;8.57;57.26;96488.69;5062585;28;20032;-78
2021/04/01 02:28:10;;;;;;;13.93;6.00;;;;;;;8.51;57.52;96497.09;5065565;28;20525;-79
2021/04/01 02:30:38;;;;;;;9.20;5.80;;;;;;;8.53;57.13;96494.38;5065293;28;20439;-78
2021/04/01 02:33:04;;;;;;;10.10;5.23;;;;;;;8.52;56.81;96496.16;5075011;28;20031;-78
2021/04/01 02:35:30;;;;;;;12.63;5.97;;;;;;;8.54;57.03;96491.59;5047223;28;20091;-78
2021/04/01 02:37:56;;;;;;;11.83;5.90;;;;;;;8.57;56.78;96493.94;5052966;28;20030;-77
2021/04/01 02:40:22;;;;;;;10.43;5.30;;;;;;;8.51;56.63;96497.09;5063426;28;20040;-77
2021/04/01 02:42:48;;;;;;;10.87;5.60;;;;;;;8.56;56.56;96492.28;5035712;28;20079;-78
2021/04/01 02:45:14;;;;;;;9.87;5.40;;;;;;;8.49;57.10;96488.56;5063311;28;20028;-77
2021/04/01 02:47:40;;;;;;;10.97;5.90;;;;;;;8.48;57.27;96493.00;5048639;28;20028;-77
2021/04/01 02:50:09;;;;;;;13.60;5.83;;;;;;;8.35;57.26;96481.94;5050949;28;20028;-76
2021/04/01 02:52:38;;;;;;;11.87;5.87;;;;;;;8.35;57.50;96483.72;5063657;28;20025;-77
2021/04/01 02:55:06;;;;;;;10.63;5.47;;;;;;;8.39;57.12;96482.50;5070151;28;20031;-78
2021/04/01 02:57:32;;;;;;;11.50;6.10;;;;;;;8.31;57.46;96477.91;5059433;28;20040;-77
2021/04/01 03:00:02;;;;;;;10.07;5.13;;;;;;;8.34;57.02;96479.44;5056181;28;20119;-76
2021/04/01 03:02:28;;;;;;;16.03;5.63;;;;;;;8.37;56.44;96474.75;5067609;28;20039;-78
2021/04/01 03:04:54;;;;;;;12.13;6.17;;;;;;;8.37;56.21;96474.75;5036331;28;20021;-77
2021/04/01 03:07:20;;;;;;;12.70;5.63;;;;;;;8.36;56.92;96477.53;5067587;28;20067;-77
2021/04/01 03:09:46;;;;;;;15.07;7.03;;;;;;;8.43;56.48;96473.41;5054657;28;20036;-77
2021/04/01 03:12:12;;;;;;;11.70;5.20;;;;;;;8.47;55.80;96474.78;5054834;28;20023;-77
2021/04/01 03:14:38;;;;;;;12.30;5.53;;;;;;;8.42;56.65;96479.63;5049543;28;20029;-77
2021/04/01 03:17:04;;;;;;;11.67;5.73;;;;;;;8.40;56.81;96476.31;5052517;28;20021;-78
2021/04/01 03:19:30;;;;;;;13.83;6.00;;;;;;;8.42;56.30;96471.75;5053006;28;20032;-78
2021/04/01 03:21:56;;;;;;;13.20;5.60;;;;;;;8.39;55.79;96472.84;5049932;28;20067;-76
2021/04/01 03:24:22;;;;;;;10.10;4.77;;;;;;;8.40;55.96;96476.31;5074183;28;20423;-77
2021/04/01 03:26:47;;;;;;;16.77;5.97;;;;;;;8.34;55.32;96472.41;5060720;28;20055;-78
2021/04/01 03:29:13;;;;;;;10.13;5.23;;;;;;;8.35;55.42;96474.06;5057918;28;20493;-77
2021/04/01 03:31:39;;;;;;;11.00;4.60;;;;;;;8.32;55.73;96484.84;5051114;28;20047;-81
2021/04/01 03:34:05;;;;;;;9.60;4.53;;;;;;;8.33;55.30;96486.47;5063587;28;20036;-77
2021/04/01 03:36:31;;;;;;;11.97;4.93;;;;;;;8.38;54.42;96476.41;5050049;28;20516;-78
2021/04/01 03:38:58;;;;;;;12.33;4.30;;;;;;;8.39;53.92;96485.13;5056764;28;20086;-77
2021/04/01 03:41:23;;;;;;;12.67;5.50;;;;;;;8.42;53.26;96482.25;5061928;28;20024;-78
2021/04/01 03:43:49;;;;;;;9.40;4.77;;;;;;;8.54;51.55;96482.91;5055987;28;20039;-77
2021/04/01 03:46:15;;;;;;;9.37;5.27;;;;;;;8.59;51.47;96484.13;5064726;28;20020;-78
2021/04/01 03:48:41;;;;;;;13.13;6.37;;;;;;;8.63;51.23;96479.44;5064062;28;20078;-77
2021/04/01 03:51:06;;;;;;;11.87;6.50;;;;;;;8.64;51.22;96481.91;5054614;28;20033;-77
2021/04/01 03:53:32;;;;;;;12.07;5.90;;;;;;;8.57;52.33;96486.06;5074785;28;20028;-77
2021/04/01 03:55:58;;;;;;;11.73;5.60;;;;;;;8.46;53.07;96484.44;5048967;28;20040;-77
2021/04/01 04:04:30;;;;;;;11.03;4.40;;;;;;;8.39;52.31;96499.06;5059202;28;20039;-77
2021/04/01 04:11:53;;;;;;;14.33;5.13;;;;;;;8.27;53.82;96489.66;5065453;28;20116;-76
2021/04/01 04:16:44;;;;;;;10.93;4.77;;;;;;;8.21;53.78;96484.97;5067679;28;20113;-78
2021/04/01 04:19:10;;;;;;;10.67;5.27;;;;;;;8.23;52.61;96477.81;5049903;28;20044;-79
2021/04/01 04:21:38;;;;;;;11.40;4.33;;;;;;;8.22;53.52;96490.06;5064069;28;20063;-78
2021/04/01 04:24:05;;;;;;;9.67;4.37;;;;;;;8.18;53.53;96480.84;5064608;28;20023;-77
2021/04/01 04:26:31;;;;;;;12.13;5.90;;;;;;;8.16;53.43;96485.38;5041641;28;20033;-79
2021/04/01 04:28:56;;;;;;;11.23;4.77;;;;;;;8.16;53.89;96480.16;5071343;28;20028;-78
2021/04/01 04:31:22;;;;;;;11.63;4.33;;;;;;;8.15;53.64;96491.59;5063888;28;20523;-77
2021/04/01 04:33:48;;;;;;;10.87;5.30;;;;;;;8.20;53.30;96489.38;5057790;28;20264;-77
2021/04/01 04:36:13;;;;;;;14.67;4.37;;;;;;;8.20;52.93;96499.84;5063403;28;20032;-78
2021/04/01 04:38:39;;;;;;;14.27;4.97;;;;;;;8.22;53.23;96489.25;5049551;28;20034;-77
2021/04/01 04:41:05;;;;;;;11.47;5.63;;;;;;;8.24;53.30;96489.91;5066830;28;20028;-78
2021/04/01 04:43:32;;;;;;;16.50;5.90;;;;;;;8.41;54.63;96496.28;5047139;28;20029;-76
2021/04/01 04:45:58;;;;;;;13.20;5.63;;;;;;;8.54;53.20;96488.13;5074468;28;20507;-77
2021/04/01 04:48:24;;;;;;;13.40;5.63;;;;;;;8.50;53.01;96491.03;5044437;28;20039;-79
2021/04/01 04:50:51;;;;;;;17.20;5.90;;;;;;;8.39;53.49;96490.38;5055143;28;20107;-77
2021/04/01 04:53:17;;;;;;;13.80;4.87;;;;;;;8.31;53.77;96485.78;5058870;28;20597;-79
2021/04/01 04:58:23;;;;;;;22.20;5.40;;;;;;;8.22;53.83;96487.47;5050875;28;20077;-77
2021/04/01 05:06:03;;;;;;;15.30;5.10;;;;;;;8.17;54.01;96492.25;5054025;28;20029;-78
2021/04/01 05:08:29;;;;;;;17.87;5.87;;;;;;;8.19;54.21;96498.22;5067541;28;20028;-78
2021/04/01 05:10:55;;;;;;;22.60;6.20;;;;;;;8.30;54.08;96499.84;5041270;28;20046;-79
2021/04/01 05:13:21;;;;;;;12.50;4.67;;;;;;;8.35;53.88;96502.06;5054496;28;20033;-78
2021/04/01 05:15:48;;;;;;;15.60;5.00;;;;;;;8.45;53.47;96497.66;5051145;28;20478;-77
2021/04/01 05:18:27;;;;;;;13.07;4.50;;;;;;;8.49;53.92;96504.31;5060418;28;20028;-78
2021/04/01 05:20:55;;;;;;;11.37;4.60;;;;;;;8.68;52.93;96498.19;5034874;28;20031;-79
2021/04/01 05:25:50;;;;;;;10.43;4.27;;;;;;;8.95;52.39;96506.16;5061441;28;20216;-78
2021/04/01 05:28:32;;;;;;;11.13;4.27;;;;;;;9.20;51.44;96502.03;5039391;28;20473;-78
2021/04/01 05:30:59;;;;;;;18.43;5.10;;;;;;;9.53;50.28;96506.91;5061676;28;20064;-77
2021/04/01 05:33:31;;;;;;;17.67;5.40;;;;;;;9.66;50.29;96502.13;5064348;28;20036;-78
2021/04/01 05:35:57;;;;;;;11.80;4.70;;;;;;;9.78;49.14;96500.09;5053456;28;20645;-78
2021/04/01 05:38:23;;;;;;;12.50;5.70;;;;;;;9.79;49.94;96504.38;5039695;28;20044;-79
2021/04/01 05:40:48;;;;;;;11.33;4.80;;;;;;;10.03;49.38;96502.03;5067500;28;20028;-79
2021/04/01 05:43:19;;;;;;;16.97;5.17;;;;;;;10.30;47.73;96503.78;5035823;28;20020;-78
2021/04/01 05:46:14;;;;;;;14.73;6.20;;;;;;;10.43;47.48;96503.41;5079454;28;20032;-78
2021/04/01 05:48:41;;;;;;;18.60;6.13;;;;;;;10.70;48.07;96501.66;5060334;28;20123;-79
2021/04/01 06:04:41;;;;;;;14.23;5.50;;;;;;;11.84;45.50;96510.16;5061481;28;20032;-78
2021/04/01 06:07:17;;;;;;;15.43;6.37;;;;;;;12.14;45.63;96514.03;5036710;28;20115;-78
2021/04/01 06:09:47;;;;;;;14.40;5.90;;;;;;;12.67;43.81;96517.19;5043683;28;20028;-77
2021/04/01 06:12:13;;;;;;;22.60;6.30;;;;;;;12.70;43.74;96512.41;5048964;28;21143;-77
2021/04/01 06:14:45;;;;;;;24.83;6.10;;;;;;;12.93;43.39;96514.38;5074412;28;20098;-77
2021/04/01 06:17:15;;;;;;;17.43;5.73;;;;;;;13.02;43.14;96509.91;5065919;28;20037;-77
2021/04/01 06:19:47;;;;;;;17.63;5.63;;;;;;;12.93;46.00;96507.28;5039222;28;20021;-77
2021/04/01 06:22:13;;;;;;;17.87;6.00;;;;;;;13.14;44.50;96509.38;5039446;28;20598;-78
2021/04/01 06:24:39;;;;;;;15.60;6.30;;;;;;;13.42;43.53;96512.47;5058634;28;20065;-77
2021/04/01 06:29:41;;;;;;;15.83;6.40;;;;;;;14.19;40.26;96506.50;5057139;28;20066;-77
2021/04/01 06:32:22;;;;;;;19.37;7.77;;;;;;;14.23;40.05;96502.50;5049388;28;20458;-77
2021/04/01 06:34:50;;;;;;;16.40;6.87;;;;;;;14.97;38.85;96504.59;5047344;28;20393;-77
2021/04/01 06:37:25;;;;;;;21.97;8.03;;;;;;;15.05;38.61;96504.50;5054045;28;20016;-77
2021/04/01 06:40:03;;;;;;;15.30;7.43;;;;;;;15.64;37.93;96509.84;5068407;28;20054;-77
2021/04/01 06:42:50;;;;;;;18.17;7.23;;;;;;;15.65;38.05;96508.84;5061000;28;20478;-77
2021/04/01 06:45:18;;;;;;;13.60;6.97;;;;;;;16.07;37.87;96495.91;5060772;28;20131;-77
2021/04/01 06:47:48;;;;;;;15.07;7.70;;;;;;;16.00;37.72;96495.84;5071348;28;20738;-77
2021/04/01 06:50:22;;;;;;;13.87;6.43;;;;;;;16.38;36.93;96495.63;5053868;28;20029;-78
2021/04/01 06:53:11;;;;;;;15.77;7.30;;;;;;;16.18;38.16;96490.94;5028092;28;20036;-78
2021/04/01 06:55:49;;;;;;;14.07;6.27;;;;;;;16.62;37.74;96486.47;5060125;28;20040;-77
2021/04/01 06:58:42;;;;;;;13.87;6.97;;;;;;;16.84;37.76;96493.44;5066637;28;20028;-77
2021/04/01 07:01:28;;;;;;;12.55;6.57;;;;;;;17.26;37.38;96489.00;5068172;28;20525;-77
2021/04/01 07:04:05;;;;;;;16.20;6.57;;;;;;;17.33;37.64;96487.22;5056513;28;20024;-77
2021/04/01 07:06:35;;;;;;;13.07;6.67;;;;;;;17.70;36.07;96492.31;5045622;28;20039;-78
2021/04/01 07:09:20;;;;;;;13.23;7.10;;;;;;;17.32;36.65;96492.75;5070012;28;20039;-77
2021/04/01 07:11:46;;;;;;;14.57;7.83;;;;;;;17.83;35.97;96487.91;5030571;28;20040;-77
2021/04/01 07:14:25;;;;;;;13.77;6.73;;;;;;;17.47;36.70;96485.47;5036453;28;20656;-78
2021/04/01 07:47:28;;;;;;;17.73;6.15;;;;;;;21.52;30.88;96479.25;5069042;28;20024;-78
2021/04/01 07:49:56;;;;;;;14.48;7.03;;;;;;;20.88;30.90;96486.59;5051888;28;20039;-78
2021/04/01 07:52:31;;;;;;;10.88;6.82;;;;;;;21.31;32.06;96479.66;5053000;28;20036;-78
2021/04/01 07:55:30;;;;;;;14.52;7.50;;;;;;;20.70;31.42;96486.56;5055694;28;20036;-78
2021/04/01 07:58:07;;;;;;;15.77;6.93;;;;;;;20.82;31.85;96490.13;5070084;28;20032;-78
2021/04/01 08:00:53;;;;;;;13.68;7.75;;;;;;;20.79;32.30;96485.25;5059427;28;20047;-78
2021/04/01 08:06:16;;;;;;;10.73;7.00;;;;;;;20.83;32.86;96475.75;5066895;28;20103;-78
2021/04/01 08:08:45;;;;;;;15.23;8.05;;;;;;;21.24;31.31;96476.22;5053630;28;20040;-77
2021/04/01 08:11:18;;;;;;;15.38;7.38;;;;;;;20.80;31.52;96481.53;5060750;28;20016;-77
2021/04/01 08:13:55;;;;;;;13.32;7.78;;;;;;;21.92;30.72;96477.97;5067101;28;20028;-78
2021/04/01 08:16:28;;;;;;;15.10;6.97;;;;;;;21.65;31.85;96468.41;5053897;28;20036;-78
2021/04/01 08:18:59;;;;;;;16.40;7.47;;;;;;;21.44;30.85;96465.38;5067732;28;20024;-78
2021/04/01 08:21:27;;;;;;;16.88;8.02;;;;;;;22.02;30.69;96472.91;5065530;28;20043;-78
2021/04/01 08:24:04;;;;;;;12.45;6.70;;;;;;;22.15;30.03;96477.28;5053048;28;20115;-77
2021/04/01 08:34:41;;;;;;;17.95;7.63;;;;;;;22.31;29.75;96471.34;5060702;28;20536;-78
2021/04/01 08:37:11;;;;;;;13.95;7.97;;;;;;;22.86;29.03;96473.78;5066641;28;20028;-78
2021/04/01 08:39:37;;;;;;;13.90;7.10;;;;;;;23.22;29.20;96467.44;5042809;28;20127;-78
2021/04/01 08:42:13;;;;;;;16.95;7.90;;;;;;;23.87;27.93;96471.00;5062694;28;20034;-78
2021/04/01 08:47:58;;;;;;;12.95;6.72;;;;;;;24.42;27.63;96470.50;5080930;28;20042;-78
2021/04/01 08:50:41;;;;;;;17.73;7.55;;;;;;;24.45;28.26;96464.66;5079727;28;20036;-79
2021/04/01 08:53:08;;;;;;;;;;;;;;;24.10;27.75;96464.75;5038560;28;20124;-78
2021/04/01 08:58:59;;;;;;;12.95;6.75;;;;;;;25.17;26.76;96451.31;5052961;28;20440;-78
2021/04/01 09:01:29;;;;;;;12.80;7.32;;;;;;;25.15;27.69;96452.63;5056110;28;20024;-78
2021/04/01 09:03:59;;;;;;;19.67;8.60;;;;;;;24.99;28.28;96453.44;5067631;28;20086;-77
2021/04/01 09:06:30;;;;;;;13.93;7.38;;;;;;;25.42;26.81;96452.78;5046973;28;20035;-78
2021/04/01 09:09:13;;;;;;;15.32;6.40;;;;;;;25.59;25.63;96453.53;5045049;28;20040;-78
2021/04/01 09:11:54;;;;;;;14.00;7.53;;;;;;;26.03;25.71;96453.56;5050581;28;20037;-79
2021/04/01 09:14:27;;;;;;;13.05;6.95;;;;;;;25.91;25.40;96450.19;5039949;28;20193;-79
2021/04/01 09:16:59;;;;;;;15.13;6.53;;;;;;;25.74;26.76;96441.31;5057193;28;20542;-78
2021/04/01 09:19:29;;;;;;;12.90;6.22;;;;;;;25.94;25.47;96444.28;5054133;28;20043;-79
2021/04/01 09:21:55;;;;;;;15.00;5.93;;;;;;;26.78;24.91;96443.81;5081504;28;20040;-79
2021/04/01 09:24:32;;;;;;;12.63;6.75;;;;;;;26.00;26.12;96439.78;5061839;28;20024;-79
2021/04/01 09:27:00;;;;;;;15.70;6.45;;;;;;;25.88;25.92;96429.13;5060715;28;20028;-78
2021/04/01 09:29:37;;;;;;;13.88;6.53;;;;;;;25.71;26.74;96433.75;5041810;28;20037;-79
2021/04/01 09:32:03;;;;;;;14.32;6.95;;;;;;;25.07;27.17;96432.31;5045998;28;20029;-79
2021/04/01 09:34:32;;;;;;;10.73;5.57;;;;;;;25.21;26.71;96426.59;5050585;28;20040;-79
2021/04/01 09:37:10;;;;;;;13.60;6.97;;;;;;;24.59;28.05;96439.06;5047470;28;20167;-79
2021/04/01 09:39:36;;;;;;;12.88;6.47;;;;;;;25.01;27.67;96430.59;5062139;28;20086;-79
2021/04/01 09:42:21;;;;;;;14.05;6.30;;;;;;;24.57;28.00;96437.69;5062583;28;20019;-79
2021/04/01 09:44:55;;;;;;;12.32;7.00;;;;;;;23.99;28.37;96439.56;5044216;28;20368;-79
2021/04/01 09:47:35;;;;;;;14.38;6.60;;;;;;;23.65;29.32;96438.59;5055345;28;20037;-78
2021/04/01 09:50:03;;;;;;;13.25;6.13;;;;;;;23.23;30.24;96431.50;5047157;28;20043;-79
2021/04/01 09:52:30;;;;;;;11.23;6.15;;;;;;;24.01;29.20;96432.09;5053507;28;20029;-79
2021/04/01 09:54:59;;;;;;;12.45;5.85;;;;;;;24.34;28.94;96430.53;5039902;28;20032;-79
2021/04/01 09:57:54;;;;;;;11.65;6.75;;;;;;;24.38;28.60;96426.28;5037256;28;20517;-79
2021/04/01 10:00:29;;;;;;;14.75;5.80;;;;;;;24.62;28.96;96429.72;5032669;28;20064;-78
2021/04/01 10:03:08;;;;;;;12.70;6.30;;;;;;;25.16;27.72;96422.78;5039528;28;20035;-79
2021/04/01 10:05:45;;;;;;;13.32;6.13;;;;;;;24.77;27.83;96423.75;5042461;28;20043;-78
2021/04/01 10:08:21;;;;;;;11.32;6.72;;;;;;;24.98;27.83;96417.63;5041592;28;20029;-79
2021/04/01 10:10:49;;;;;;;12.43;5.78;;;;;;;25.34;27.74;96410.09;5065635;28;20544;-79
2021/04/01 10:13:17;;;;;;;9.98;5.43;;;;;;;25.34;27.64;96405.53;5062818;28;20089;-78
2021/04/01 10:15:43;;;;;;;10.43;5.55;;;;;;;26.02;27.38;96406.13;5050076;28;20036;-79
2021/04/01 10:18:10;;;;;;;10.13;5.20;;;;;;;26.59;26.11;96401.28;5069799;28;20059;-78
2021/04/01 10:20:36;;;;;;;12.68;5.63;;;;;;;25.67;26.77;96400.31;5043044;28;20640;-79
2021/04/01 10:23:08;;;;;;;18.58;7.25;;;;;;;25.77;26.66;96403.94;5053143;28;20095;-79
2021/04/01 10:25:50;;;;;;;12.40;5.50;;;;;;;25.04;27.40;96389.75;5047591;28;20578;-78
2021/04/01 10:28:39;;;;;;;8.93;4.80;;;;;;;25.76;27.18;96393.41;5066906;28;20072;-79
2021/04/01 10:31:17;;;;;;;8.95;4.85;;;;;;;25.76;27.28;96382.63;5053268;28;20539;-78
2021/04/01 10:33:52;;;;;;;10.20;4.13;;;;;;;25.85;27.38;96392.75;5049004;28;20035;-78
2021/04/01 10:36:26;;;;;;;11.40;5.10;;;;;;;25.51;26.94;96386.63;5072033;28;20036;-78
2021/04/01 10:38:56;;;;;;;7.45;4.22;;;;;;;25.74;27.49;96384.75;5037972;28;20017;-78
2021/04/01 10:41:22;;;;;;;10.82;4.43;;;;;;;25.26;27.47;96375.56;5048499;28;20055;-79
2021/04/01 10:43:57;;;;;;;12.93;4.65;;;;;;;25.58;27.17;96373.78;5038281;28;20048;-78
2021/04/01 10:46:25;;;;;;;11.23;4.38;;;;;;;26.13;27.74;96371.22;5042087;28;20025;-78
2021/04/01 10:48:55;;;;;;;8.77;3.97;;;;;;;25.36;27.45;96364.91;5057466;28;20170;-78
2021/04/01 10:51:24;;;;;;;8.00;3.17;;;;;;;25.94;27.41;96368.84;5062520;28;20029;-79
2021/04/01 10:53:50;;;;;;;9.80;3.65;;;;;;;26.30;27.16;96366.50;5059406;28;20029;-79
2021/04/01 10:56:16;;;;;;;7.20;3.00;;;;;;;25.59;27.42;96364.66;5060868;28;20077;-79
2021/04/01 10:58:50;;;;;;;6.22;3.22;;;;;;;26.04;26.79;96365.44;5049570;28;20097;-79
2021/04/01 11:01:19;;;;;;;10.20;3.45;;;;;;;26.46;26.29;96353.97;5047776;28;20104;-79
2021/04/01 11:03:52;;;;;;;7.40;3.30;;;;;;;27.25;26.56;96355.91;5064192;28;20025;-79
2021/04/01 11:06:19;;;;;;;9.15;3.30;;;;;;;27.02;25.75;96349.81;5059991;28;20036;-79
2021/04/01 11:08:49;;;;;;;7.63;2.90;;;;;;;26.77;25.91;96345.06;5067534;28;20029;-81
2021/04/01 11:11:15;;;;;;;8.65;3.03;;;;;;;26.51;26.52;96338.66;5047894;28;20035;-79
2021/04/01 11:13:45;;;;;;;7.10;3.65;;;;;;;26.22;26.47;96337.31;5046828;28;20047;-79
2021/04/01 11:16:15;;;;;;;10.05;3.95;;;;;;;26.18;26.35;96337.00;5050151;28;20032;-79
2021/04/01 11:19:00;;;;;;;8.93;3.20;;;;;;;25.62;27.13;96329.16;5049631;28;20044;-79
2021/04/01 11:21:31;;;;;;;7.63;3.17;;;;;;;25.21;27.70;96332.41;5051122;28;20037;-79
2021/04/01 11:23:57;;;;;;;8.85;2.92;;;;;;;26.35;25.89;96326.09;5058379;28;20122;-79
2021/04/01 11:26:27;;;;;;;5.55;2.30;;;;;;;26.81;24.88;96323.78;5055288;28;20112;-80
2021/04/01 11:28:54;;;;;;;6.57;2.85;;;;;;;27.65;25.10;96322.03;5063427;28;20059;-78
2021/04/01 11:31:25;;;;;;;3.53;2.22;;;;;;;26.55;25.85;96315.50;5045791;28;20040;-82
2021/04/01 11:33:55;;;;;;;4.50;2.60;;;;;;;26.34;26.15;96314.50;5051555;28;20033;-79
2021/04/01 11:36:23;;;;;;;8.00;2.60;;;;;;;26.00;26.56;96321.22;5083901;28;20021;-80
2021/04/01 11:38:55;;;;;;;5.47;2.58;;;;;;;26.45;25.63;96310.00;5067907;28;20017;-79
2021/04/01 11:41:24;;;;;;;6.47;2.63;;;;;;;26.30;25.71;96313.41;5052779;28;20123;-78
2021/04/01 11:43:56;;;;;;;5.65;2.47;;;;;;;26.82;25.20;96313.78;5056844;28;20024;-78
2021/04/01 11:46:26;;;;;;;5.10;2.45;;;;;;;27.74;23.72;96305.03;5047852;28;20040;-78
2021/04/01 11:48:52;;;;;;;12.80;2.58;;;;;;;27.11;24.44;96309.66;5063775;28;20074;-79
2021/04/01 11:51:24;;;;;;;5.95;2.58;;;;;;;27.19;24.41;96314.56;5065956;28;20078;-79
2021/04/01 11:53:51;;;;;;;6.90;2.50;;;;;;;26.75;25.01;96306.72;5071208;28;20033;-79
2021/04/01 11:56:17;;;;;;;5.80;2.28;;;;;;;26.45;25.47;96303.78;5045043;28;20025;-79
2021/04/01 11:58:43;;;;;;;5.88;2.10;;;;;;;26.89;24.83;96299.00;5062388;28;20494;-78
2021/04/01 12:01:15;;;;;;;7.78;2.65;;;;;;;27.01;25.09;96304.19;5050981;28;20024;-80
2021/04/01 12:03:51;;;;;;;7.25;2.42;;;;;;;26.32;25.89;96303.19;5034519;28;20025;-78
2021/04/01 12:06:18;;;;;;;5.35;2.30;;;;;;;27.00;24.77;96295.28;5045429;28;20038;-78
2021/04/01 12:08:44;;;;;;;7.90;2.38;;;;;;;26.87;25.16;96301.16;5068095;28;20051;-78
2021/04/01 12:11:10;;;;;;;4.60;2.15;;;;;;;26.12;25.61;96294.91;5073482;28;20081;-79
2021/04/01 12:13:36;;;;;;;5.15;2.28;;;;;;;25.90;26.24;96288.78;5060229;28;20057;-78
2021/04/01 12:16:02;;;;;;;3.22;1.90;;;;;;;26.01;26.57;96285.91;5060840;28;20027;-78
2021/04/01 12:18:40;;;;;;;4.57;2.65;;;;;;;26.47;26.30;96291.72;5058040;28;20047;-80
2021/04/01 12:21:07;;;;;;;6.68;2.47;;;;;;;26.15;25.50;96277.41;5043313;28;20373;-77
2021/04/01 12:23:48;;;;;;;6.72;2.78;;;;;;;26.81;26.03;96277.91;5072061;28;20028;-78
2021/04/01 12:26:14;;;;;;;4.43;2.15;;;;;;;27.44;25.12;96277.94;5073565;28;20025;-78
2021/04/01 12:28:40;;;;;;;4.55;2.20;;;;;;;26.75;25.57;96271.66;5077671;28;20039;-77
2021/04/01 12:31:15;;;;;;;6.00;2.20;;;;;;;27.65;24.64;96262.59;5068488;28;20028;-78
2021/04/01 12:33:49;;;;;;;4.72;2.15;;;;;;;27.43;25.18;96265.50;5048063;28;20032;-78
2021/04/01 12:36:15;;;;;;;5.32;2.67;;;;;;;27.87;24.67;96260.50;5066304;28;20033;-78
2021/04/01 12:38:45;;;;;;;5.70;2.67;;;;;;;27.79;25.10;96261.03;5054046;28;20024;-78
2021/04/01 12:41:25;;;;;;;5.13;2.15;;;;;;;27.61;24.19;96253.41;5045798;28;20112;-78
2021/04/01 12:43:52;;;;;;;5.72;2.15;;;;;;;27.72;23.90;96253.16;5059564;28;20058;-78
2021/04/01 12:46:18;;;;;;;9.40;3.92;;;;;;;27.34;24.72;96259.81;5058256;28;20040;-78
2021/04/01 12:48:55;;;;;;;7.40;3.08;;;;;;;27.92;24.27;96251.59;5051345;28;20060;-77
2021/04/01 12:51:25;;;;;;;4.38;2.20;;;;;;;27.95;24.14;96245.66;5040408;28;20036;-78
2021/04/01 12:54:07;;;;;;;3.95;2.45;;;;;;;27.81;24.34;96244.56;5058391;28;20520;-78
2021/04/01 12:56:36;;;;;;;5.10;2.15;;;;;;;27.01;24.76;96248.31;5059866;28;20041;-77
2021/04/01 13:01:39;;;;;;;4.78;2.40;;;;;;;26.00;26.75;96243.06;5055344;28;20036;-77
2021/04/01 13:04:07;;;;;;;7.15;2.33;;;;;;;25.10;27.56;96246.13;5067838;28;20420;-77
2021/04/01 13:11:50;;;;;;;4.68;2.03;;;;;;;25.85;26.75;96236.50;5059296;28;20024;-77
2021/04/01 13:14:16;;;;;;;4.38;2.20;;;;;;;25.48;27.43;96233.66;5036127;28;20032;-79
2021/04/01 13:16:42;;;;;;;4.55;2.17;;;;;;;25.47;26.92;96240.13;5059226;28;20572;-77
2021/04/01 13:19:08;;;;;;;9.32;2.25;;;;;;;25.43;27.10;96230.94;5046729;28;20074;-77